createdAt,value
2023-02-17T00:01:30.974Z,7.90
2023-02-17T00:03:58.951Z,8.00
2023-02-17T00:06:30.221Z,8.00
2023-02-17T00:08:58.286Z,8.00
2023-02-17T00:11:26.074Z,8.00
2023-02-17T00:13:56.305Z,8.00
2023-02-17T00:16:27.337Z,8.10
2023-02-17T00:18:58.446Z,8.20
2023-02-17T00:21:31.486Z,8.10
2023-02-17T00:23:59.592Z,8.10
2023-02-17T00:26:28.059Z,8.10
2023-02-17T00:28:55.518Z,8.10
2023-02-17T00:31:24.302Z,8.00
2023-02-17T00:33:56.039Z,8.10
2023-02-17T00:36:25.224Z,8.10
2023-02-17T00:38:56.761Z,8.10
2023-02-17T00:41:26.907Z,8.00
2023-02-17T00:43:54.793Z,7.80
2023-02-17T00:46:22.900Z,8.00
2023-02-17T00:48:52.934Z,7.50
2023-02-17T00:51:21.538Z,7.50
2023-02-17T00:53:50.375Z,7.80
2023-02-17T00:56:18.145Z,7.80
2023-02-17T00:58:46.517Z,7.90
2023-02-17T01:01:14.095Z,8.00
2023-02-17T01:03:42.464Z,8.00
2023-02-17T01:06:23.128Z,8.00
2023-02-17T01:08:50.790Z,8.00
2023-02-17T01:11:23.775Z,7.80
2023-02-17T01:13:51.802Z,7.80
2023-02-17T01:16:27.107Z,7.80
2023-02-17T01:18:55.788Z,7.80
2023-02-17T01:21:29.848Z,8.00
2023-02-17T01:24:00.323Z,8.00
2023-02-17T01:26:32.012Z,7.90
2023-02-17T01:29:02.633Z,8.00
2023-02-17T01:31:31.130Z,8.00
2023-02-17T01:34:01.523Z,8.10
2023-02-17T01:36:29.578Z,8.10
2023-02-17T01:38:57.414Z,8.10
2023-02-17T01:41:27.600Z,8.10
2023-02-17T01:44:25.863Z,8.10
2023-02-17T01:46:55.731Z,8.10
2023-02-17T01:49:39.623Z,8.00
2023-02-17T01:52:36.192Z,8.00
2023-02-17T01:55:08.666Z,7.80
2023-02-17T01:57:41.492Z,8.00
2023-02-17T02:00:12.482Z,8.00
2023-02-17T02:02:43.392Z,8.10
2023-02-17T02:05:15.877Z,8.10
2023-02-17T02:07:47.694Z,8.10
2023-02-17T02:10:17.702Z,8.10
2023-02-17T02:12:46.499Z,8.10
2023-02-17T02:15:25.004Z,8.20
2023-02-17T02:18:26.330Z,8.10
2023-02-17T02:20:59.767Z,8.00
2023-02-17T02:24:05.622Z,8.00
2023-02-17T02:27:01.614Z,7.80
2023-02-17T02:29:47.482Z,8.00
2023-02-17T02:32:35.535Z,7.80
2023-02-17T02:35:20.750Z,7.90
2023-02-17T02:37:57.761Z,8.00
2023-02-17T02:40:31.317Z,8.00
2023-02-17T02:43:01.007Z,8.00
2023-02-17T02:45:30.297Z,7.80
2023-02-17T02:47:59.595Z,7.60
2023-02-17T02:50:47.714Z,7.40
2023-02-17T02:53:36.426Z,7.30
2023-02-17T02:56:29.238Z,7.40
2023-02-17T02:59:21.264Z,7.50
2023-02-17T03:02:03.771Z,7.50
2023-02-17T03:04:37.958Z,7.70
2023-02-17T03:07:23.186Z,7.80
2023-02-17T03:09:56.619Z,7.80
2023-02-17T03:12:24.965Z,8.00
2023-02-17T03:15:02.565Z,8.00
2023-02-17T03:17:34.017Z,7.80
2023-02-17T03:20:04.985Z,7.50
2023-02-17T03:22:43.101Z,7.50
2023-02-17T03:25:11.858Z,7.60
2023-02-17T03:27:39.219Z,7.50
2023-02-17T03:30:08.203Z,7.60
2023-02-17T03:32:37.651Z,7.60
2023-02-17T03:35:05.820Z,7.20
2023-02-17T03:37:34.015Z,7.20
2023-02-17T03:40:01.395Z,7.10
2023-02-17T03:42:30.692Z,7.20
2023-02-17T03:44:58.143Z,7.20
2023-02-17T03:47:26.158Z,7.40
2023-02-17T03:49:53.483Z,7.50
2023-02-17T03:52:20.862Z,7.50
2023-02-17T03:54:48.654Z,7.50
2023-02-17T03:57:16.014Z,7.50
2023-02-17T03:59:43.783Z,7.60
2023-02-17T04:02:11.098Z,7.60
2023-02-17T04:04:39.319Z,7.60
2023-02-17T04:07:06.721Z,7.60
2023-02-17T04:09:35.241Z,7.70
2023-02-17T04:12:03.372Z,7.80
2023-02-17T04:14:32.515Z,7.70
2023-02-17T04:16:59.918Z,7.80
2023-02-17T04:19:28.046Z,7.60
2023-02-17T04:21:55.465Z,7.70
2023-02-17T04:24:24.093Z,7.50
2023-02-17T04:26:51.364Z,7.40
2023-02-17T04:29:19.942Z,7.40
2023-02-17T04:31:47.572Z,7.50
2023-02-17T04:34:16.101Z,7.50
2023-02-17T04:36:44.438Z,7.20
2023-02-17T04:39:12.386Z,7.20
2023-02-17T04:41:40.167Z,7.00
2023-02-17T04:44:09.025Z,6.90
2023-02-17T04:46:36.382Z,7.00
2023-02-17T04:49:05.639Z,6.80
2023-02-17T04:51:33.029Z,6.90
2023-02-17T04:54:01.300Z,6.90
2023-02-17T04:56:30.401Z,7.00
2023-02-17T04:58:58.804Z,7.20
2023-02-17T05:01:26.447Z,7.20
2023-02-17T05:03:53.986Z,7.40
2023-02-17T05:06:22.789Z,7.30
2023-02-17T05:08:52.601Z,7.20
2023-02-17T05:11:20.373Z,7.10
2023-02-17T05:13:49.353Z,7.00
2023-02-17T05:16:17.225Z,6.70
2023-02-17T05:18:45.398Z,6.50
2023-02-17T05:21:12.765Z,6.60
2023-02-17T05:23:41.517Z,6.70
2023-02-17T05:26:10.052Z,6.80
2023-02-17T05:28:38.308Z,6.80
2023-02-17T05:31:06.912Z,6.90
2023-02-17T05:33:35.421Z,6.90
2023-02-17T05:36:05.611Z,6.80
2023-02-17T05:38:33.246Z,6.80
2023-02-17T05:41:00.829Z,6.90
2023-02-17T05:43:29.033Z,7.00
2023-02-17T05:45:56.392Z,7.00
2023-02-17T05:48:24.486Z,7.00
2023-02-17T05:50:51.779Z,7.00
2023-02-17T05:53:19.293Z,6.90
2023-02-17T05:55:48.771Z,6.90
2023-02-17T05:58:17.173Z,6.70
2023-02-17T06:00:46.230Z,6.70
2023-02-17T06:03:14.290Z,6.70
2023-02-17T06:05:41.811Z,6.70
2023-02-17T06:08:09.221Z,6.50
2023-02-17T06:10:36.631Z,6.40
2023-02-17T06:13:04.901Z,6.30
2023-02-17T06:15:35.473Z,6.40
2023-02-17T06:18:03.318Z,6.50
2023-02-17T06:20:31.374Z,6.60
2023-02-17T06:22:58.683Z,6.60
2023-02-17T06:25:25.971Z,6.60
2023-02-17T06:27:53.998Z,6.60
2023-02-17T06:30:27.048Z,6.60
2023-02-17T06:32:54.795Z,6.60
2023-02-17T06:35:23.101Z,6.70
2023-02-17T06:37:50.590Z,6.90
2023-02-17T06:40:18.250Z,7.00
2023-02-17T06:42:45.966Z,7.20
2023-02-17T06:45:13.654Z,7.20
2023-02-17T06:47:43.101Z,7.20
2023-02-17T06:50:11.233Z,7.40
2023-02-17T06:52:38.547Z,7.40
2023-02-17T06:55:08.275Z,7.50
2023-02-17T06:57:35.596Z,7.60
2023-02-17T07:00:06.177Z,7.60
2023-02-17T07:02:33.857Z,7.60
2023-02-17T07:05:01.450Z,7.50
2023-02-17T07:07:28.910Z,7.40
2023-02-17T07:09:56.238Z,7.50
2023-02-17T07:12:23.515Z,7.60
2023-02-17T07:14:51.965Z,7.80
2023-02-17T07:17:19.348Z,8.00
2023-02-17T07:19:46.624Z,8.20
2023-02-17T07:22:13.934Z,8.40
2023-02-17T07:24:41.569Z,8.40
2023-02-17T07:27:10.849Z,8.40
2023-02-17T07:29:38.389Z,8.40
2023-02-17T07:32:05.776Z,8.50
2023-02-17T07:34:33.087Z,8.60
2023-02-17T07:37:01.593Z,8.50
2023-02-17T07:39:28.808Z,8.50
2023-02-17T07:42:01.500Z,8.50
2023-02-17T07:44:28.898Z,8.50
2023-02-17T07:46:58.616Z,8.50
2023-02-17T07:49:26.244Z,8.60
2023-02-17T07:51:54.502Z,8.80
2023-02-17T07:54:22.108Z,9.00
2023-02-17T07:56:50.153Z,9.20
2023-02-17T07:59:17.523Z,9.40
2023-02-17T08:01:45.402Z,9.40
2023-02-17T08:04:12.942Z,9.50
2023-02-17T08:06:40.706Z,9.60
2023-02-17T08:09:29.168Z,9.70
2023-02-17T08:12:16.383Z,10.00
2023-02-17T08:14:46.091Z,10.00
2023-02-17T08:17:13.415Z,10.00
2023-02-17T08:19:48.588Z,10.00
2023-02-17T08:22:19.013Z,10.10
2023-02-17T08:24:46.778Z,10.30
2023-02-17T08:27:15.845Z,10.50
2023-02-17T08:29:44.651Z,10.60
2023-02-17T08:32:14.145Z,10.40
2023-02-17T08:34:43.425Z,10.30
2023-02-17T08:37:12.225Z,10.40
2023-02-17T08:39:39.721Z,10.60
2023-02-17T08:42:07.440Z,10.80
2023-02-17T08:44:36.694Z,11.00
2023-02-17T08:47:05.912Z,11.10
2023-02-17T08:49:33.343Z,11.30
2023-02-17T08:52:02.218Z,11.40
2023-02-17T08:54:29.759Z,11.10
2023-02-17T08:56:58.730Z,11.10
2023-02-17T08:59:27.234Z,11.00
2023-02-17T09:01:55.017Z,11.10
2023-02-17T09:04:23.962Z,11.20
2023-02-17T09:06:53.201Z,11.40
2023-02-17T09:09:23.952Z,11.10
2023-02-17T09:11:51.470Z,10.90
2023-02-17T09:14:19.412Z,11.30
2023-02-17T09:16:46.846Z,11.30
2023-02-17T09:19:14.817Z,11.00
2023-02-17T09:21:42.754Z,10.60
2023-02-17T09:24:10.151Z,10.90
2023-02-17T09:26:37.508Z,10.90
2023-02-17T09:29:06.133Z,11.30
2023-02-17T09:31:36.401Z,11.90
2023-02-17T09:34:05.094Z,12.20
2023-02-17T09:36:38.070Z,12.30
2023-02-17T09:39:06.302Z,12.50
2023-02-17T09:41:47.932Z,12.50
2023-02-17T09:44:23.745Z,12.60
2023-02-17T09:47:07.929Z,12.70
2023-02-17T09:50:14.259Z,13.00
2023-02-17T09:53:03.910Z,13.20
2023-02-17T09:55:38.790Z,13.40
2023-02-17T09:58:18.675Z,13.50
2023-02-17T10:00:48.117Z,13.50
2023-02-17T10:03:32.733Z,13.50
2023-02-17T10:06:06.952Z,13.50
2023-02-17T10:09:24.945Z,13.70
2023-02-17T10:11:59.993Z,13.40
2023-02-17T10:14:40.376Z,12.90
2023-02-17T10:17:36.263Z,13.10
2023-02-17T10:20:09.231Z,13.20
2023-02-17T10:22:40.037Z,13.80
2023-02-17T10:25:16.145Z,14.00
2023-02-17T10:27:59.248Z,14.10
2023-02-17T10:31:04.362Z,14.20
2023-02-17T10:33:49.892Z,14.50
2023-02-17T10:36:25.530Z,14.70
2023-02-17T10:39:06.389Z,14.90
2023-02-17T10:41:37.162Z,15.00
2023-02-17T10:44:14.533Z,14.90
2023-02-17T10:46:44.367Z,15.10
2023-02-17T10:49:34.728Z,15.40
2023-02-17T10:52:13.297Z,15.80
2023-02-17T10:54:54.558Z,14.60
2023-02-17T10:57:26.930Z,14.00
2023-02-17T10:59:54.542Z,13.10
2023-02-17T11:02:33.839Z,12.80
2023-02-17T11:05:01.403Z,13.70
2023-02-17T11:07:47.190Z,13.90
2023-02-17T11:10:37.980Z,14.90
2023-02-17T11:13:19.649Z,15.40
2023-02-17T11:15:48.194Z,15.40
2023-02-17T11:18:27.820Z,15.50
2023-02-17T11:21:08.940Z,15.40
2023-02-17T11:23:46.952Z,15.60
2023-02-17T11:26:23.512Z,16.20
2023-02-17T11:28:51.837Z,16.40
2023-02-17T11:31:28.185Z,16.00
2023-02-17T11:33:56.938Z,16.20
2023-02-17T11:36:28.609Z,16.20
2023-02-17T11:38:57.069Z,16.00
2023-02-17T11:41:24.814Z,15.70
2023-02-17T11:44:00.371Z,15.90
2023-02-17T11:47:09.404Z,16.30
2023-02-17T11:50:10.895Z,16.50
2023-02-17T11:52:49.907Z,16.70
2023-02-17T11:55:27.868Z,16.40
2023-02-17T11:58:25.845Z,16.20
2023-02-17T12:01:02.517Z,15.60
2023-02-17T12:04:06.726Z,16.30
2023-02-17T12:06:47.919Z,16.60
2023-02-17T12:09:37.629Z,16.20
2023-02-17T12:12:21.662Z,16.30
2023-02-17T12:15:31.397Z,16.10
2023-02-17T12:18:15.148Z,16.40
2023-02-17T12:20:50.047Z,16.90
2023-02-17T12:23:32.801Z,17.30
2023-02-17T12:26:17.112Z,16.60
2023-02-17T12:29:02.463Z,16.60
2023-02-17T12:31:54.606Z,17.20
2023-02-17T12:34:48.263Z,17.60
2023-02-17T12:37:36.678Z,17.80
2023-02-17T12:40:15.009Z,18.00
2023-02-17T12:42:53.242Z,17.50
2023-02-17T12:45:26.601Z,17.80
2023-02-17T12:48:04.075Z,17.80
2023-02-17T12:50:50.983Z,16.80
2023-02-17T12:53:51.128Z,16.40
2023-02-17T12:56:31.521Z,16.80
2023-02-17T12:59:22.247Z,16.80
2023-02-17T13:02:11.041Z,17.40
2023-02-17T13:04:40.342Z,17.80
2023-02-17T13:07:26.843Z,17.80
2023-02-17T13:09:56.616Z,18.20
2023-02-17T13:12:24.246Z,18.50
2023-02-17T13:14:56.794Z,17.70
2023-02-17T13:17:25.562Z,17.00
2023-02-17T13:20:11.383Z,16.70
2023-02-17T13:22:40.798Z,17.00
2023-02-17T13:25:26.096Z,17.50
2023-02-17T13:27:53.608Z,17.50
2023-02-17T13:30:30.953Z,17.20
2023-02-17T13:33:05.184Z,17.20
2023-02-17T13:35:37.249Z,16.90
2023-02-17T13:38:05.091Z,17.00
2023-02-17T13:40:38.652Z,17.20
2023-02-17T13:43:20.001Z,17.50
2023-02-17T13:46:02.838Z,17.60
2023-02-17T13:48:35.321Z,17.70
2023-02-17T13:51:07.754Z,18.00
2023-02-17T13:53:41.300Z,17.80
2023-02-17T13:56:24.304Z,17.40
2023-02-17T13:58:52.176Z,17.50
2023-02-17T14:01:26.285Z,17.80
2023-02-17T14:03:55.904Z,18.00
2023-02-17T14:06:28.411Z,18.00
2023-02-17T14:08:56.678Z,18.30
2023-02-17T14:11:27.115Z,18.70
2023-02-17T14:13:59.417Z,19.00
2023-02-17T14:16:39.469Z,19.20
2023-02-17T14:19:16.740Z,18.60
2023-02-17T14:22:04.394Z,18.70
2023-02-17T14:24:36.317Z,18.90
2023-02-17T14:27:10.056Z,18.30
2023-02-17T14:29:46.670Z,18.00
2023-02-17T14:32:47.293Z,17.70
2023-02-17T14:35:14.787Z,18.40
2023-02-17T14:37:43.559Z,19.00
2023-02-17T14:40:24.366Z,19.20
2023-02-17T14:42:52.382Z,18.40
2023-02-17T14:45:24.966Z,18.10
2023-02-17T14:47:52.607Z,17.80
2023-02-17T14:50:20.939Z,17.20
2023-02-17T14:52:50.334Z,16.90
2023-02-17T14:55:36.722Z,16.50
2023-02-17T14:58:05.143Z,16.80
2023-02-17T15:00:35.553Z,17.10
2023-02-17T15:03:04.077Z,17.70
2023-02-17T15:05:31.450Z,18.50
2023-02-17T15:08:01.522Z,17.50
2023-02-17T15:10:30.038Z,17.70
2023-02-17T15:12:57.499Z,18.10
2023-02-17T15:15:27.488Z,18.30
2023-02-17T15:17:54.964Z,18.30
2023-02-17T15:20:22.266Z,18.10
2023-02-17T15:22:52.995Z,17.60
2023-02-17T15:25:24.509Z,17.30
2023-02-17T15:27:52.999Z,17.70
2023-02-17T15:30:27.474Z,17.60
2023-02-17T15:32:56.931Z,18.10
2023-02-17T15:35:27.134Z,18.10
2023-02-17T15:37:56.642Z,17.20
2023-02-17T15:40:27.630Z,15.80
2023-02-17T15:43:03.702Z,14.90
2023-02-17T15:45:35.574Z,14.40
2023-02-17T15:48:14.216Z,14.10
2023-02-17T15:50:42.952Z,13.90
2023-02-17T15:53:11.316Z,13.90
2023-02-17T15:55:39.606Z,13.70
2023-02-17T15:58:14.139Z,13.60
2023-02-17T16:00:42.079Z,13.50
2023-02-17T16:03:14.934Z,13.50
2023-02-17T16:05:42.900Z,13.30
2023-02-17T16:08:11.558Z,13.30
2023-02-17T16:10:42.176Z,13.30
2023-02-17T16:13:12.583Z,13.20
2023-02-17T16:15:42.069Z,13.00
2023-02-17T16:18:28.052Z,12.90
2023-02-17T16:20:55.720Z,12.90
2023-02-17T16:23:22.949Z,12.80
2023-02-17T16:25:51.610Z,12.70
2023-02-17T16:28:22.127Z,12.60
2023-02-17T16:30:50.268Z,12.50
2023-02-17T16:33:18.801Z,12.50
2023-02-17T16:35:46.283Z,12.50
2023-02-17T16:38:23.611Z,12.40
2023-02-17T16:40:54.929Z,12.30
2023-02-17T16:43:27.865Z,12.30
2023-02-17T16:45:58.590Z,12.30
2023-02-17T16:48:28.117Z,12.30
2023-02-17T16:50:57.273Z,12.20
2023-02-17T16:53:24.511Z,12.10
2023-02-17T16:56:12.934Z,12.00
2023-02-17T16:58:41.581Z,12.00
2023-02-17T17:01:13.060Z,11.90
2023-02-17T17:03:42.844Z,11.80
2023-02-17T17:06:23.928Z,11.70
2023-02-17T17:08:52.608Z,11.70
2023-02-17T17:11:25.449Z,11.70
2023-02-17T17:13:53.340Z,11.60
2023-02-17T17:16:31.370Z,11.70
2023-02-17T17:18:59.762Z,11.70
2023-02-17T17:21:28.924Z,11.70
2023-02-17T17:23:56.394Z,11.70
2023-02-17T17:26:26.707Z,11.70
2023-02-17T17:28:54.682Z,11.80
2023-02-17T17:31:23.803Z,11.70
2023-02-17T17:33:52.936Z,11.70
2023-02-17T17:36:45.994Z,11.70
2023-02-17T17:39:22.617Z,11.60
2023-02-17T17:41:51.687Z,11.70
2023-02-17T17:44:20.705Z,11.60
2023-02-17T17:46:48.194Z,11.50
2023-02-17T17:49:21.931Z,11.50
2023-02-17T17:51:50.897Z,11.40
2023-02-17T17:54:18.615Z,11.40
2023-02-17T17:56:46.022Z,11.40
2023-02-17T17:59:15.548Z,11.50
2023-02-17T18:01:45.624Z,11.50
2023-02-17T18:04:14.465Z,11.30
2023-02-17T18:06:52.766Z,11.20
2023-02-17T18:09:31.615Z,11.30
2023-02-17T18:12:04.050Z,11.20
2023-02-17T18:14:33.770Z,11.00
2023-02-17T18:17:02.921Z,10.90
2023-02-17T18:19:32.618Z,11.00
2023-02-17T18:22:01.076Z,10.60
2023-02-17T18:24:30.183Z,10.60
2023-02-17T18:26:57.974Z,10.20
2023-02-17T18:29:25.702Z,9.80
2023-02-17T18:31:53.443Z,9.80
2023-02-17T18:34:21.050Z,9.80
2023-02-17T18:36:48.700Z,9.60
2023-02-17T18:39:16.317Z,9.60
2023-02-17T18:41:43.877Z,9.80
2023-02-17T18:44:13.742Z,9.80
2023-02-17T18:46:41.598Z,9.50
2023-02-17T18:49:09.546Z,9.50
2023-02-17T18:51:37.092Z,9.70
2023-02-17T18:54:05.614Z,9.80
2023-02-17T18:56:34.283Z,9.70
2023-02-17T18:59:05.479Z,9.60
2023-02-17T19:01:39.377Z,9.80
2023-02-17T19:04:10.250Z,10.00
2023-02-17T19:06:41.808Z,10.10
2023-02-17T19:09:09.956Z,10.20
2023-02-17T19:11:37.565Z,10.20
2023-02-17T19:14:06.349Z,10.30
2023-02-17T19:16:33.812Z,10.30
2023-02-17T19:19:01.667Z,10.20
2023-02-17T19:21:29.148Z,10.20
2023-02-17T19:23:57.007Z,10.20
2023-02-17T19:26:24.223Z,10.10
2023-02-17T19:28:52.843Z,10.00
2023-02-17T19:31:20.986Z,10.00
2023-02-17T19:33:49.779Z,9.80
2023-02-17T19:36:20.013Z,9.80
2023-02-17T19:38:50.407Z,9.80
2023-02-17T19:41:18.815Z,9.80
2023-02-17T19:43:47.039Z,9.80
2023-02-17T19:46:25.848Z,9.70
2023-02-17T19:48:53.343Z,9.20
2023-02-17T19:51:21.068Z,8.90
2023-02-17T19:53:48.674Z,9.00
2023-02-17T19:56:25.046Z,9.00
2023-02-17T19:58:53.215Z,9.10
2023-02-17T20:01:23.593Z,9.20
2023-02-17T20:03:52.496Z,9.00
2023-02-17T20:06:23.035Z,8.80
2023-02-17T20:08:56.240Z,8.50
2023-02-17T20:11:24.734Z,8.60
2023-02-17T20:13:52.973Z,8.50
2023-02-17T20:16:21.090Z,8.50
2023-02-17T20:18:50.215Z,8.40
2023-02-17T20:21:22.144Z,8.40
2023-02-17T20:23:50.414Z,8.10
2023-02-17T20:26:27.325Z,7.80
2023-02-17T20:28:55.732Z,7.80
2023-02-17T20:31:23.711Z,8.00
2023-02-17T20:33:53.942Z,8.10
2023-02-17T20:36:23.508Z,8.30
2023-02-17T20:38:51.184Z,8.40
2023-02-17T20:41:20.631Z,8.40
2023-02-17T20:43:52.064Z,7.80
2023-02-17T20:46:26.707Z,7.50
2023-02-17T20:48:55.605Z,7.80
2023-02-17T20:51:23.955Z,8.00
2023-02-17T20:53:52.308Z,8.00
2023-02-17T20:56:23.100Z,7.60
2023-02-17T20:58:52.474Z,7.80
2023-02-17T21:01:20.808Z,8.00
2023-02-17T21:03:48.278Z,7.60
2023-02-17T21:06:34.446Z,7.20
2023-02-17T21:09:06.081Z,7.40
2023-02-17T21:11:34.518Z,7.50
2023-02-17T21:14:02.005Z,7.40
2023-02-17T21:16:35.478Z,7.00
2023-02-17T21:19:35.146Z,7.00
2023-02-17T21:22:02.656Z,6.70
2023-02-17T21:24:30.166Z,6.50
2023-02-17T21:26:57.700Z,6.40
2023-02-17T21:29:25.094Z,6.60
2023-02-17T21:31:53.513Z,6.90
2023-02-17T21:34:23.024Z,7.10
2023-02-17T21:36:50.718Z,7.40
2023-02-17T21:39:19.790Z,7.40
2023-02-17T21:41:47.336Z,6.80
2023-02-17T21:44:35.017Z,6.90
2023-02-17T21:47:04.527Z,7.00
2023-02-17T21:49:33.714Z,7.30
2023-02-17T21:52:01.318Z,7.50
2023-02-17T21:54:28.791Z,7.50
2023-02-17T21:56:57.890Z,7.40
2023-02-17T21:59:25.261Z,7.50
2023-02-17T22:01:53.713Z,7.40
2023-02-17T22:04:21.978Z,7.30
2023-02-17T22:06:49.520Z,7.20
2023-02-17T22:09:18.386Z,6.60
2023-02-17T22:11:49.198Z,6.40
2023-02-17T22:14:18.667Z,6.70
2023-02-17T22:16:47.822Z,6.90
2023-02-17T22:19:20.880Z,7.00
2023-02-17T22:21:50.448Z,7.20
2023-02-17T22:24:21.043Z,7.20
2023-02-17T22:26:50.132Z,7.20
2023-02-17T22:29:17.478Z,6.70
2023-02-17T22:31:45.309Z,6.20
2023-02-17T22:34:14.851Z,6.10
2023-02-17T22:36:42.502Z,6.40
2023-02-17T22:39:13.174Z,6.60
2023-02-17T22:41:41.690Z,6.80
2023-02-17T22:44:09.044Z,6.90
2023-02-17T22:46:36.590Z,7.00
2023-02-17T22:49:04.139Z,6.70
2023-02-17T22:51:36.122Z,6.20
2023-02-17T22:54:03.758Z,5.90
2023-02-17T22:56:32.409Z,6.00
2023-02-17T22:59:04.011Z,6.10
2023-02-17T23:01:35.071Z,6.30
2023-02-17T23:04:02.954Z,6.10
2023-02-17T23:06:34.765Z,6.20
2023-02-17T23:09:02.610Z,6.30
2023-02-17T23:11:54.612Z,6.30
2023-02-17T23:14:35.507Z,6.50
2023-02-17T23:17:06.397Z,6.40
2023-02-17T23:19:34.495Z,6.50
2023-02-17T23:22:08.272Z,6.60
2023-02-17T23:24:35.731Z,6.40
2023-02-17T23:27:04.023Z,6.20
2023-02-17T23:29:32.888Z,6.30
2023-02-17T23:32:02.174Z,6.50
2023-02-17T23:34:29.650Z,6.60
2023-02-17T23:36:58.651Z,6.80
2023-02-17T23:39:26.316Z,6.70
2023-02-17T23:41:54.875Z,6.30
2023-02-17T23:44:22.461Z,5.90
2023-02-17T23:46:50.204Z,5.60
2023-02-17T23:49:18.064Z,5.50
2023-02-17T23:51:48.086Z,5.50
2023-02-17T23:54:16.010Z,5.50
2023-02-17T23:56:43.847Z,5.50
2023-02-17T23:59:12.005Z,5.30
